Time;durP1;ratioP1;P1;durP2;ratioP2;P2;SDS_P1;SDS_P2;PMS_P1;PMS_P2;Temp;Humidity;BMP_temperature;BMP_pressure;BME280_temperature;BME280_humidity;BME280_pressure;Samples;Min_cycle;Max_cycle;Signal;HPM_P1;HPM_P2
2022/04/01 00:02:16;;;;;;;26.00;4.90;;;;;;;16.30;43.92;99690.41;5089669;28;20032;-79
2022/04/01 00:04:42;;;;;;;38.65;5.72;;;;;;;16.27;43.53;99685.41;5129145;28;20039;-79
2022/04/01 00:07:07;;;;;;;;;;;;;;;16.31;43.82;99683.91;5109972;28;20044;-79
2022/04/01 00:09:32;;;;;;;19.13;5.00;;;;;;;16.24;43.55;99675.81;5114696;28;19923;-79
2022/04/01 00:11:58;;;;;;;24.70;4.75;;;;;;;16.37;43.33;99673.00;5107264;28;20023;-80
2022/04/01 00:14:24;;;;;;;24.65;5.07;;;;;;;16.41;43.33;99665.22;5112403;28;20051;-79
2022/04/01 00:16:51;;;;;;;26.45;4.95;;;;;;;16.40;43.21;99653.56;5096725;28;20055;-79
2022/04/01 00:19:20;;;;;;;33.17;5.07;;;;;;;16.44;42.95;99691.94;5109163;28;20472;-79
2022/04/01 00:21:46;;;;;;;26.65;5.25;;;;;;;16.40;43.20;99712.41;5110042;28;20415;-80
2022/04/01 00:24:11;;;;;;;26.55;5.45;;;;;;;16.46;42.74;99695.25;5111188;28;20038;-80
2022/04/01 00:26:37;;;;;;;27.67;5.47;;;;;;;16.39;42.78;99673.63;5096595;28;20032;-80
2022/04/01 00:29:14;;;;;;;21.95;5.20;;;;;;;16.35;42.80;99682.41;5107133;28;20057;-79
2022/04/01 00:31:42;;;;;;;27.38;5.45;;;;;;;16.42;42.82;99688.59;5116548;28;20047;-80
2022/04/01 00:34:16;;;;;;;27.30;5.00;;;;;;;16.23;42.89;99669.56;5127103;28;20399;-80
2022/04/01 00:36:46;;;;;;;32.35;5.80;;;;;;;16.52;42.50;99688.91;5107835;28;20066;-80
2022/04/01 00:39:12;;;;;;;32.33;5.25;;;;;;;16.51;42.79;99700.03;5110358;28;20035;-80
2022/04/01 00:41:38;;;;;;;36.55;5.40;;;;;;;16.43;43.08;99717.38;5105806;28;20051;-82
2022/04/01 00:44:24;;;;;;;35.25;5.40;;;;;;;16.36;42.96;99714.72;5103984;28;20128;-80
2022/04/01 00:46:53;;;;;;;22.65;5.28;;;;;;;16.25;43.20;99723.59;5093222;28;20036;-82
2022/04/01 00:49:19;;;;;;;26.65;5.80;;;;;;;16.25;43.49;99710.88;5109614;28;20028;-79
2022/04/01 00:51:46;;;;;;;;;;;;;;;16.27;43.70;99707.91;5094428;28;20100;-80
2022/04/01 00:54:12;;;;;;;35.58;5.55;;;;;;;16.07;44.27;99713.50;5108819;28;19916;-82
2022/04/01 00:56:38;;;;;;;28.42;5.25;;;;;;;16.09;44.36;99722.25;5110520;28;20054;-79
2022/04/01 00:59:03;;;;;;;20.20;4.95;;;;;;;16.17;44.33;99724.69;5109399;28;20044;-79
2022/04/01 01:01:34;;;;;;;27.60;5.22;;;;;;;16.18;44.46;99728.25;5085650;28;20023;-80
2022/04/01 01:04:04;;;;;;;23.85;4.88;;;;;;;16.12;44.64;99743.50;5089954;28;20059;-82
2022/04/01 01:06:30;;;;;;;31.45;5.50;;;;;;;16.09;45.00;99732.28;5082339;28;21091;-81
2022/04/01 01:08:56;;;;;;;28.13;5.30;;;;;;;16.06;44.99;99724.56;5097187;28;20028;-79
2022/04/01 01:11:22;;;;;;;28.70;6.15;;;;;;;16.04;45.00;99722.09;5110674;28;20039;-79
2022/04/01 01:13:47;;;;;;;30.17;5.63;;;;;;;16.03;45.32;99731.25;5111709;28;20130;-79
2022/04/01 01:16:13;;;;;;;27.45;5.53;;;;;;;16.01;45.20;99736.06;5110878;28;20376;-80
2022/04/01 01:18:40;;;;;;;28.33;5.22;;;;;;;15.98;45.17;99734.63;5109217;28;20053;-80
2022/04/01 01:21:09;;;;;;;30.75;5.25;;;;;;;15.91;45.41;99714.03;5104774;28;20127;-79
2022/04/01 01:23:35;;;;;;;29.05;5.35;;;;;;;16.07;45.08;99723.53;5109606;28;20071;-82
2022/04/01 01:26:01;;;;;;;24.33;6.28;;;;;;;16.07;45.87;99713.50;5107245;28;20038;-80
2022/04/01 01:28:28;;;;;;;29.30;5.70;;;;;;;16.13;45.53;99696.38;5103728;28;20039;-83
2022/04/01 01:30:55;;;;;;;26.48;5.68;;;;;;;16.02;45.62;99716.06;5077725;28;20126;-82
2022/04/01 01:33:21;;;;;;;24.45;5.57;;;;;;;15.98;45.75;99707.53;5101605;28;20457;-79
2022/04/01 01:35:47;;;;;;;24.70;5.90;;;;;;;16.01;45.99;99714.38;5101943;27;20103;-80
2022/04/01 01:38:17;;;;;;;26.33;5.53;;;;;;;15.92;45.99;99700.28;5104486;28;20054;-80
2022/04/01 01:40:43;;;;;;;30.25;6.05;;;;;;;15.82;46.46;99676.34;5093613;28;20164;-78
2022/04/01 01:43:09;;;;;;;25.35;5.28;;;;;;;15.88;46.43;99671.13;5102817;28;20044;-79
2022/04/01 01:45:35;;;;;;;;;;;;;;;15.97;46.32;99654.38;5112304;27;20456;-78
2022/04/01 01:48:00;;;;;;;33.85;6.22;;;;;;;15.88;46.57;99666.53;5110046;28;19923;-79
2022/04/01 01:55:54;;;;;;;28.80;5.68;;;;;;;15.87;46.73;99618.78;5111443;28;20046;-78
2022/04/01 01:58:19;;;;;;;32.05;6.30;;;;;;;15.81;46.79;99634.06;5109689;28;20411;-79
2022/04/01 02:00:45;;;;;;;;;;;;;;;15.79;46.76;99638.84;5109934;28;20078;-79
2022/04/01 02:03:11;;;;;;;;;;;;;;;15.83;46.97;99609.44;5111501;28;20311;-79
2022/04/01 02:05:37;;;;;;;32.03;6.75;;;;;;;15.90;46.84;99612.09;5111354;28;20379;-79
2022/04/01 02:08:05;;;;;;;27.88;5.53;;;;;;;15.76;46.96;99608.66;5111007;28;20035;-80
2022/04/01 02:10:30;;;;;;;22.08;5.60;;;;;;;15.69;47.27;99616.81;5111264;28;20015;-80
2022/04/01 02:12:56;;;;;;;28.40;6.13;;;;;;;15.68;47.17;99609.72;5111419;28;20390;-79
2022/04/01 02:15:21;;;;;;;32.15;5.53;;;;;;;15.71;46.97;99594.94;5111859;28;20028;-81
2022/04/01 02:17:47;;;;;;;28.98;6.32;;;;;;;15.65;47.10;99602.03;5110815;28;20036;-80
2022/04/01 02:20:13;;;;;;;32.85;5.80;;;;;;;15.69;47.15;99597.84;5109863;28;20043;-81
2022/04/01 02:22:39;;;;;;;27.38;5.93;;;;;;;15.67;46.88;99591.81;5110748;28;20047;-80
2022/04/01 02:25:07;;;;;;;31.63;5.65;;;;;;;15.64;47.16;99600.41;5093052;28;20121;-79
2022/04/01 02:27:33;;;;;;;31.95;6.53;;;;;;;15.51;47.38;99598.59;5111405;28;20034;-80
2022/04/01 02:29:58;;;;;;;26.45;5.82;;;;;;;15.58;47.44;99617.50;5110954;28;20114;-81
2022/04/01 02:32:25;;;;;;;35.45;6.70;;;;;;;15.57;47.55;99613.16;5109502;28;20503;-77
2022/04/01 02:34:50;;;;;;;26.48;5.60;;;;;;;15.48;47.52;99611.75;5110361;28;20135;-78
2022/04/01 02:37:19;;;;;;;31.17;5.85;;;;;;;15.53;47.33;99603.81;5111979;28;20034;-79
2022/04/01 02:39:45;;;;;;;35.05;6.57;;;;;;;15.51;47.28;99606.72;5111311;28;20474;-78
2022/04/01 02:42:10;;;;;;;32.58;5.85;;;;;;;15.57;47.16;99586.91;5092625;28;20055;-79
2022/04/01 02:44:36;;;;;;;29.65;5.97;;;;;;;15.60;47.08;99582.91;5107812;28;20486;-81
2022/04/01 02:47:03;;;;;;;21.08;5.53;;;;;;;15.56;47.45;99577.09;5110312;28;20027;-78
2022/04/01 02:49:29;;;;;;;27.63;5.70;;;;;;;15.61;47.32;99573.72;5110124;28;20137;-79
2022/04/01 02:51:54;;;;;;;28.17;5.82;;;;;;;15.68;46.93;99541.97;5110883;28;20108;-78
2022/04/01 02:54:23;;;;;;;26.25;6.55;;;;;;;15.49;47.29;99524.84;5109278;28;20043;-81
2022/04/01 02:56:48;;;;;;;27.55;5.65;;;;;;;15.54;47.48;99552.09;5110737;28;20036;-79
2022/04/01 02:59:14;;;;;;;35.22;6.90;;;;;;;15.51;47.44;99552.53;5110338;28;20020;-79
2022/04/01 03:01:40;;;;;;;30.95;7.85;;;;;;;15.55;47.33;99548.34;5110982;28;20460;-79
2022/04/01 03:04:09;;;;;;;33.10;6.75;;;;;;;15.48;47.07;99542.16;5109283;28;20114;-79
2022/04/01 03:06:36;;;;;;;27.48;5.47;;;;;;;15.53;47.15;99563.16;5109002;28;20388;-79
2022/04/01 03:09:01;;;;;;;33.38;6.53;;;;;;;15.61;47.20;99571.00;5109210;28;20122;-79
2022/04/01 03:11:27;;;;;;;28.52;6.18;;;;;;;15.49;47.23;99561.94;5109765;28;20032;-80
2022/04/01 03:13:52;;;;;;;34.42;6.07;;;;;;;15.58;46.81;99563.34;5109435;28;20074;-78
2022/04/01 03:16:18;;;;;;;29.80;6.47;;;;;;;15.55;47.17;99552.94;5110392;28;20063;-79
2022/04/01 03:18:43;;;;;;;32.20;7.72;;;;;;;15.50;46.56;99561.72;5108785;28;20229;-80
2022/04/01 03:21:12;;;;;;;35.08;8.48;;;;;;;15.37;46.45;99551.81;5110588;28;20432;-79
2022/04/01 03:23:38;;;;;;;29.58;7.72;;;;;;;15.53;46.52;99588.38;5110078;28;20494;-80
2022/04/01 03:26:04;;;;;;;29.27;6.82;;;;;;;15.52;46.57;99610.25;5108957;28;20038;-79
2022/04/01 03:28:29;;;;;;;32.17;5.50;;;;;;;15.47;46.52;99629.03;5108115;28;20035;-79
2022/04/01 03:30:56;;;;;;;22.08;5.78;;;;;;;15.56;46.26;99630.44;5110081;28;20032;-79
2022/04/01 03:33:21;;;;;;;33.15;6.25;;;;;;;15.56;45.96;99636.69;5110123;28;20024;-81
2022/04/01 03:35:47;;;;;;;32.47;6.07;;;;;;;15.66;45.79;99652.44;5091661;28;20505;-79
2022/04/01 03:38:12;;;;;;;30.83;7.03;;;;;;;15.74;45.58;99665.78;5108164;28;20055;-79
2022/04/01 03:40:40;;;;;;;30.23;5.93;;;;;;;15.81;45.14;99623.22;5110331;28;20059;-80
2022/04/01 03:43:05;;;;;;;35.70;5.70;;;;;;;15.71;45.71;99652.69;5108054;28;20053;-80
2022/04/01 03:45:31;;;;;;;36.72;6.43;;;;;;;15.78;45.74;99653.47;5110667;28;20027;-80
2022/04/01 03:48:03;;;;;;;36.30;6.00;;;;;;;15.73;45.45;99626.22;5125966;28;20044;-83
2022/04/01 03:50:32;;;;;;;38.80;6.07;;;;;;;15.88;45.55;99639.44;5118133;28;20066;-79
2022/04/01 03:53:15;;;;;;;40.40;5.88;;;;;;;15.87;45.36;99604.41;5092168;28;20059;-80
2022/04/01 03:55:42;;;;;;;32.28;6.53;;;;;;;15.69;45.78;99587.00;5102261;28;20038;-79
2022/04/01 03:58:09;;;;;;;36.08;6.60;;;;;;;15.78;45.76;99607.41;5091621;28;20135;-79
2022/04/01 04:00:35;;;;;;;38.85;6.75;;;;;;;15.86;45.58;99611.72;5108938;28;20132;-80
2022/04/01 04:03:06;;;;;;;32.38;6.47;;;;;;;15.82;45.68;99592.34;5109749;28;20028;-79
2022/04/01 04:05:33;;;;;;;37.03;5.82;;;;;;;15.99;45.22;99599.91;5101353;28;20443;-80
2022/04/01 04:07:59;;;;;;;35.97;6.13;;;;;;;15.79;45.79;99587.38;5108873;28;20071;-79
2022/04/01 04:10:27;;;;;;;37.70;6.03;;;;;;;15.98;45.33;99585.53;5110141;28;20051;-80
2022/04/01 04:12:55;;;;;;;37.72;5.80;;;;;;;16.01;45.30;99576.13;5111624;28;20039;-79
2022/04/01 04:15:20;;;;;;;32.97;6.20;;;;;;;16.04;45.33;99571.09;5120988;28;20095;-81
2022/04/01 04:17:46;;;;;;;31.02;5.97;;;;;;;16.13;45.00;99563.50;5131815;28;20035;-79
2022/04/01 04:20:18;;;;;;;;;;;;;;;16.20;44.57;99571.56;5072022;28;20036;-78
2022/04/01 04:23:06;;;;;;;42.15;6.10;;;;;;;16.15;44.84;99576.81;5094107;28;19919;-79
2022/04/01 04:25:36;;;;;;;35.22;6.40;;;;;;;16.30;44.69;99598.19;5104353;28;20030;-79
2022/04/01 04:28:03;;;;;;;45.25;7.22;;;;;;;16.11;45.11;99575.59;5111682;28;20077;-79
2022/04/01 04:30:35;;;;;;;36.85;7.25;;;;;;;16.27;44.83;99582.34;5113723;28;20035;-81
2022/04/01 04:33:07;;;;;;;31.10;7.03;;;;;;;16.30;44.51;99609.03;5112871;28;20437;-78
2022/04/01 04:35:38;;;;;;;40.83;7.38;;;;;;;16.17;44.78;99608.09;5105118;28;20037;-79
2022/04/01 04:38:04;;;;;;;48.83;8.57;;;;;;;16.30;44.76;99649.72;5111399;28;20027;-80
2022/04/01 04:40:30;;;;;;;34.42;6.78;;;;;;;16.32;44.59;99644.88;5113453;28;20028;-80
2022/04/01 04:42:55;;;;;;;34.40;6.90;;;;;;;16.25;44.33;99645.78;5111294;28;20054;-79
2022/04/01 04:45:22;;;;;;;38.25;8.50;;;;;;;16.25;44.07;99629.50;5111817;28;20035;-79
2022/04/01 04:47:47;;;;;;;;;;;;;;;16.12;44.54;99664.88;5113341;28;20043;-79
2022/04/01 04:50:13;;;;;;;43.30;11.15;;;;;;;16.12;44.23;99639.66;5112876;28;19918;-79
2022/04/01 04:52:39;;;;;;;45.97;6.55;;;;;;;16.06;42.50;99595.28;5112482;28;20539;-80
2022/04/01 04:55:09;;;;;;;31.25;5.97;;;;;;;16.23;42.56;99615.34;5112028;28;20071;-80
2022/04/01 04:57:35;;;;;;;41.92;6.10;;;;;;;16.10;42.52;99603.78;5111182;28;20042;-78
2022/04/01 05:00:01;;;;;;;36.85;6.30;;;;;;;16.14;42.47;99611.25;5111194;28;20032;-80
2022/04/01 05:02:48;;;;;;;35.25;6.40;;;;;;;16.22;42.42;99613.69;5112833;28;20618;-84
2022/04/01 05:05:29;;;;;;;39.78;6.57;;;;;;;16.14;42.11;99605.81;5109456;28;20043;-79
2022/04/01 05:08:07;;;;;;;30.40;5.68;;;;;;;16.24;41.89;99635.97;5111470;28;20041;-79
2022/04/01 05:10:58;;;;;;;36.65;6.88;;;;;;;16.33;42.22;99636.53;5103158;28;20066;-79
2022/04/01 05:14:00;;;;;;;40.58;6.72;;;;;;;16.37;41.66;99637.75;5111049;28;20131;-79
2022/04/01 05:16:45;;;;;;;40.65;7.00;;;;;;;16.49;41.41;99626.97;5029454;28;20038;-79
2022/04/01 05:19:12;;;;;;;42.72;6.45;;;;;;;16.28;41.22;99594.88;5085292;28;20048;-79
2022/04/01 05:21:47;;;;;;;33.45;6.50;;;;;;;16.53;41.02;99609.19;5111829;28;20040;-79
2022/04/01 05:24:16;;;;;;;35.15;6.32;;;;;;;16.59;40.21;99607.47;5111770;27;20123;-79
2022/04/01 05:26:42;;;;;;;32.60;6.28;;;;;;;16.59;39.38;99615.59;5110642;28;20480;-79
2022/04/01 05:29:13;;;;;;;39.78;6.45;;;;;;;16.82;39.10;99602.22;5110656;28;20077;-79
2022/04/01 05:31:55;;;;;;;40.80;5.72;;;;;;;16.87;37.84;99594.19;5111442;28;20031;-79
2022/04/01 05:34:23;;;;;;;33.45;6.03;;;;;;;17.13;37.24;99599.53;5110452;28;20118;-80
2022/04/01 05:36:50;;;;;;;40.22;5.95;;;;;;;17.38;36.58;99610.25;5111427;28;20498;-78
2022/04/01 05:39:16;;;;;;;38.45;6.38;;;;;;;17.59;36.50;99609.72;5111302;28;20046;-78
2022/04/01 05:41:41;;;;;;;46.13;7.22;;;;;;;17.52;36.30;99623.41;5111462;28;20043;-79
2022/04/01 05:44:09;;;;;;;;;;;;;;;17.55;36.30;99604.97;5093299;28;20497;-78
2022/04/01 05:46:34;;;;;;;38.47;5.80;;;;;;;17.62;35.99;99611.16;5090213;28;19927;-79
2022/04/01 05:49:00;;;;;;;40.15;6.20;;;;;;;17.90;35.81;99614.06;5106407;28;20035;-80
2022/04/01 05:51:27;;;;;;;46.03;6.20;;;;;;;17.91;35.10;99615.72;5089526;28;20028;-80
2022/04/01 05:53:53;;;;;;;35.67;6.45;;;;;;;18.03;35.11;99633.97;5105293;28;20092;-78
2022/04/01 05:56:18;;;;;;;;;;;;;;;17.94;35.44;99630.75;5110161;28;20039;-79
2022/04/01 05:58:43;;;;;;;35.70;6.55;;;;;;;18.05;35.13;99627.22;5111114;28;19916;-80
2022/04/01 06:01:14;;;;;;;;;;;;;;;18.31;34.55;99620.47;5112018;28;20023;-81
2022/04/01 06:04:06;;;;;;;29.10;5.47;;;;;;;18.22;34.86;99638.22;5108659;28;19912;-79
2022/04/01 06:06:44;;;;;;;36.40;5.68;;;;;;;18.40;34.38;99639.16;5110202;28;20054;-79
2022/04/01 06:09:32;;;;;;;40.38;6.65;;;;;;;18.05;35.25;99638.09;5109407;28;20046;-80
2022/04/01 06:12:28;;;;;;;45.22;6.05;;;;;;;17.77;35.60;99630.56;5111571;28;20500;-80
2022/04/01 06:15:21;;;;;;;36.80;6.82;;;;;;;17.77;35.28;99638.72;5110786;28;20047;-79
2022/04/01 06:18:08;;;;;;;34.60;5.82;;;;;;;17.77;35.41;99627.84;5110456;28;20044;-79
2022/04/01 06:20:34;;;;;;;37.70;7.07;;;;;;;18.18;34.86;99601.66;5101874;28;20055;-79
2022/04/01 06:23:06;;;;;;;49.88;7.10;;;;;;;18.21;34.34;99608.53;5109135;28;20480;-79
2022/04/01 06:25:32;;;;;;;37.03;7.47;;;;;;;17.96;34.37;99614.19;5109087;28;20043;-79
2022/04/01 06:28:08;;;;;;;;;;;;;;;18.03;34.82;99612.22;5089717;28;20032;-80
2022/04/01 06:30:33;;;;;;;36.42;6.47;;;;;;;17.89;34.93;99579.78;5102278;28;20226;-79
2022/04/01 06:33:18;;;;;;;;;;;;;;;17.80;34.79;99569.47;5110006;28;20092;-80
2022/04/01 06:35:53;;;;;;;45.83;8.00;;;;;;;18.05;34.26;99555.66;5103947;28;20298;-78
2022/04/01 06:38:22;;;;;;;36.63;7.63;;;;;;;18.04;34.40;99575.78;5109476;28;20418;-78
2022/04/01 06:40:59;;;;;;;50.45;8.55;;;;;;;17.99;34.40;99581.09;5110648;28;20273;-79
2022/04/01 06:43:25;;;;;;;47.55;8.07;;;;;;;18.11;33.83;99609.13;5110210;28;20031;-80
2022/04/01 06:45:51;;;;;;;44.28;7.15;;;;;;;18.24;33.57;99602.59;5109371;28;20038;-80
2022/04/01 06:48:16;;;;;;;;;;;;;;;18.34;33.61;99591.97;5110014;28;20027;-78
2022/04/01 06:50:51;;;;;;;;;;;;;;;18.24;33.94;99591.72;5110805;28;19967;-79
2022/04/01 06:53:17;;;;;;;38.78;6.32;;;;;;;18.17;33.23;99594.59;5108658;28;20404;-79
2022/04/01 06:55:43;;;;;;;46.33;9.35;;;;;;;18.26;33.10;99595.03;5092299;28;20056;-80
2022/04/01 06:58:11;;;;;;;;;;;;;;;18.57;32.47;99607.44;5108919;28;20031;-80
2022/04/01 07:00:37;;;;;;;71.20;13.27;;;;;;;18.80;31.78;99595.72;5110094;28;19912;-79
2022/04/01 07:03:03;;;;;;;52.25;8.60;;;;;;;18.83;31.79;99583.53;5109930;28;20091;-80
2022/04/01 07:05:28;;;;;;;;;;;;;;;19.06;31.31;99598.94;5111162;28;20114;-78
2022/04/01 07:07:54;;;;;;;57.80;8.32;;;;;;;19.09;30.87;99610.19;5110442;28;19923;-78
2022/04/01 07:10:20;;;;;;;;;;;;;;;19.12;30.81;99597.97;5111033;28;20035;-80
2022/04/01 07:12:45;;;;;;;;;;;;;;;19.15;30.75;99592.03;5110516;28;19926;-80
2022/04/01 07:15:11;;;;;;;92.50;14.50;;;;;;;19.66;29.80;99601.13;5110161;28;19912;-79
2022/04/01 07:17:37;;;;;;;;;;;;;;;19.85;29.28;99600.94;5110713;28;20031;-81
2022/04/01 07:20:03;;;;;;;52.67;9.95;;;;;;;19.83;29.41;99571.19;5110581;28;19916;-79
2022/04/01 07:22:29;;;;;;;49.67;8.63;;;;;;;19.72;29.50;99592.00;5109796;28;20015;-80
2022/04/01 07:24:55;;;;;;;56.53;12.02;;;;;;;19.86;29.31;99595.25;5110636;28;20436;-78
2022/04/01 07:27:21;;;;;;;;;;;;;;;20.10;28.88;99597.78;5092687;28;20028;-79
2022/04/01 07:29:47;;;;;;;50.33;8.35;;;;;;;19.88;29.02;99584.06;5109924;28;19927;-79
2022/04/01 07:32:32;;;;;;;;;;;;;;;20.47;28.24;99576.22;5112297;28;20027;-80
2022/04/01 07:35:00;;;;;;;39.60;8.18;;;;;;;22.00;26.11;99576.22;5119121;28;19912;-82
2022/04/01 07:37:26;;;;;;;41.03;7.95;;;;;;;21.75;26.18;99554.94;5122133;28;20042;-80
2022/04/01 07:39:52;;;;;;;45.53;6.90;;;;;;;20.99;27.34;99573.06;5124692;28;20031;-79
2022/04/01 07:42:20;;;;;;;43.83;8.98;;;;;;;21.10;27.23;99609.53;5092950;28;20124;-80
2022/04/01 07:44:46;;;;;;;41.10;7.47;;;;;;;20.81;27.39;99576.97;5107641;28;20148;-80
2022/04/01 07:47:14;;;;;;;53.45;8.10;;;;;;;21.89;25.82;99578.03;5110000;28;20031;-80
2022/04/01 07:49:40;;;;;;;40.30;7.85;;;;;;;22.80;24.84;99587.09;5092191;28;20498;-81
2022/04/01 07:52:09;;;;;;;48.58;7.45;;;;;;;22.79;24.70;99572.59;5091115;28;20364;-79
2022/04/01 07:54:35;;;;;;;43.88;7.55;;;;;;;22.17;25.49;99579.59;5110044;28;20028;-80
2022/04/01 07:57:02;;;;;;;37.33;6.40;;;;;;;21.97;25.56;99563.88;5111387;28;20055;-81
2022/04/01 07:59:29;;;;;;;37.95;6.60;;;;;;;21.51;26.17;99590.84;5111950;28;20030;-79
2022/04/01 08:01:55;;;;;;;41.50;6.60;;;;;;;22.31;25.27;99577.25;5113661;28;20124;-79
2022/04/01 08:04:20;;;;;;;32.50;6.53;;;;;;;23.34;24.03;99557.44;5113359;28;20081;-79
2022/04/01 08:06:46;;;;;;;38.75;6.40;;;;;;;23.98;22.93;99550.59;5115343;28;20036;-80
2022/04/01 08:09:11;;;;;;;44.00;7.72;;;;;;;24.64;22.34;99535.06;5128689;28;20020;-77
2022/04/01 08:11:37;;;;;;;49.25;6.10;;;;;;;24.15;22.67;99511.03;5112366;28;20036;-77
2022/04/01 08:14:02;;;;;;;38.47;6.38;;;;;;;23.95;23.00;99520.13;5111779;28;20108;-79
2022/04/01 08:16:29;;;;;;;45.22;7.15;;;;;;;23.72;23.50;99530.56;5115871;28;20110;-78
2022/04/01 08:18:54;;;;;;;41.85;6.55;;;;;;;23.09;23.90;99524.47;5114009;28;20560;-78
2022/04/01 08:21:20;;;;;;;38.35;6.80;;;;;;;22.90;24.15;99521.41;5114809;28;20143;-80
2022/04/01 08:23:45;;;;;;;37.83;7.18;;;;;;;22.89;23.97;99523.28;5114285;28;20032;-79
2022/04/01 08:26:11;;;;;;;46.90;7.57;;;;;;;23.85;23.12;99520.13;5116209;27;20030;-79
2022/04/01 08:28:37;;;;;;;32.65;6.18;;;;;;;24.17;22.87;99493.16;5113660;28;20031;-78
2022/04/01 08:31:03;;;;;;;40.50;6.57;;;;;;;23.94;22.90;99508.31;5113953;28;20043;-78
2022/04/01 08:33:29;;;;;;;40.47;7.30;;;;;;;25.43;21.36;99514.00;5112523;28;20043;-78
2022/04/01 08:35:54;;;;;;;40.20;7.13;;;;;;;25.00;21.53;99508.19;5113526;28;20035;-78
2022/04/01 08:38:20;;;;;;;44.67;6.53;;;;;;;24.43;22.04;99515.06;5113894;28;20024;-79
2022/04/01 08:40:45;;;;;;;46.83;7.32;;;;;;;23.75;22.89;99502.59;5113140;28;20035;-80
2022/04/01 08:43:11;;;;;;;42.03;6.40;;;;;;;23.82;23.13;99496.00;5113160;28;20097;-80
2022/04/01 08:45:37;;;;;;;46.60;6.65;;;;;;;24.12;22.48;99484.13;5113724;28;20133;-80
2022/04/01 08:48:07;;;;;;;40.63;6.03;;;;;;;23.19;23.79;99519.00;5112321;28;20059;-80
2022/04/01 08:50:33;;;;;;;31.90;6.80;;;;;;;23.00;23.97;99490.47;5111996;28;20028;-80
2022/04/01 08:52:59;;;;;;;44.20;6.80;;;;;;;23.72;23.10;99508.59;5111851;28;20107;-78
2022/04/01 08:55:25;;;;;;;36.22;6.35;;;;;;;24.20;22.48;99484.38;5111765;28;20034;-80
2022/04/01 08:57:51;;;;;;;49.47;8.18;;;;;;;24.69;21.75;99482.00;5111438;28;20418;-80
2022/04/01 09:00:17;;;;;;;35.83;6.45;;;;;;;25.31;21.39;99507.19;5112778;28;20084;-77
2022/04/01 09:02:43;;;;;;;51.40;7.20;;;;;;;26.02;20.35;99517.63;5112580;28;20419;-77
2022/04/01 09:05:09;;;;;;;42.75;6.25;;;;;;;24.77;21.71;99506.13;5112903;27;20104;-79
2022/04/01 09:07:35;;;;;;;50.92;6.30;;;;;;;24.22;22.18;99486.84;5111769;28;20035;-80
2022/04/01 09:10:02;;;;;;;51.45;6.50;;;;;;;22.99;23.66;99492.38;5112265;28;20055;-81
2022/04/01 09:12:28;;;;;;;35.50;5.85;;;;;;;23.10;23.93;99512.41;5112785;28;20404;-82
2022/04/01 09:14:54;;;;;;;53.80;6.68;;;;;;;23.39;23.27;99499.84;5110598;28;20535;-80
2022/04/01 09:17:19;;;;;;;40.97;6.15;;;;;;;23.80;23.08;99494.34;5110631;28;20028;-80
2022/04/01 09:19:47;;;;;;;40.55;6.50;;;;;;;23.79;23.01;99500.13;5112557;28;20190;-79
2022/04/01 09:22:23;;;;;;;37.92;6.18;;;;;;;23.80;23.17;99513.56;5112361;28;20023;-78
2022/04/01 09:24:56;;;;;;;40.38;6.80;;;;;;;23.50;23.51;99495.16;5110762;28;20047;-79
2022/04/01 09:27:47;;;;;;;44.08;6.82;;;;;;;23.45;23.53;99508.06;5112601;28;20495;-78
2022/04/01 09:30:17;;;;;;;40.25;6.10;;;;;;;23.42;23.83;99511.34;5112163;28;20030;-79
2022/04/01 09:32:48;;;;;;;35.05;6.63;;;;;;;22.95;24.51;99500.28;5109873;28;20211;-78
2022/04/01 09:35:14;;;;;;;47.05;7.10;;;;;;;24.06;23.25;99521.75;5111856;28;20034;-80
2022/04/01 09:37:45;;;;;;;39.85;6.57;;;;;;;23.05;24.56;99564.47;5110202;28;20038;-80
2022/04/01 09:40:12;;;;;;;39.60;6.28;;;;;;;23.52;23.81;99523.13;5108622;28;20027;-80
2022/04/01 09:42:38;;;;;;;39.28;6.80;;;;;;;24.37;23.00;99533.50;5110072;28;20411;-80
2022/04/01 09:45:04;;;;;;;47.83;7.30;;;;;;;25.53;21.64;99545.28;5107767;28;20058;-81
2022/04/01 09:47:37;;;;;;;46.97;6.75;;;;;;;25.44;21.64;99532.13;5108485;28;20043;-79
2022/04/01 09:50:09;;;;;;;43.30;6.75;;;;;;;24.39;22.90;99527.69;5108237;28;20026;-80
2022/04/01 09:52:36;;;;;;;45.35;6.60;;;;;;;23.47;24.19;99528.63;5111991;28;20031;-81
2022/04/01 09:55:02;;;;;;;41.08;6.32;;;;;;;22.83;24.91;99501.63;5110934;28;20024;-79
2022/04/01 09:57:28;;;;;;;41.00;6.40;;;;;;;22.62;25.29;99500.75;5110092;28;20110;-79
2022/04/01 09:59:54;;;;;;;41.40;6.43;;;;;;;22.67;25.33;99500.78;5093682;28;20358;-80
2022/04/01 10:02:20;;;;;;;44.25;6.25;;;;;;;22.95;25.11;99500.28;5110999;28;20031;-80
2022/04/01 10:04:45;;;;;;;40.30;7.10;;;;;;;23.43;24.49;99499.28;5112000;28;20040;-80
2022/04/01 10:07:11;;;;;;;45.75;6.80;;;;;;;23.79;23.81;99486.41;5109564;28;20031;-81
2022/04/01 10:09:39;;;;;;;35.97;6.32;;;;;;;23.43;24.20;99469.94;5111699;28;20055;-80
2022/04/01 10:12:10;;;;;;;41.55;6.38;;;;;;;22.65;25.14;99467.34;5093328;28;20063;-79
2022/04/01 10:14:39;;;;;;;42.22;6.32;;;;;;;22.32;25.68;99470.22;5092089;28;20084;-82
2022/04/01 10:17:05;;;;;;;34.35;6.57;;;;;;;22.26;25.55;99475.94;5110852;28;20032;-81
2022/04/01 10:19:32;;;;;;;46.45;6.38;;;;;;;22.27;25.92;99469.41;5076239;28;20482;-82
2022/04/01 10:21:58;;;;;;;36.35;6.45;;;;;;;22.51;25.45;99472.50;5108871;28;20030;-81
2022/04/01 10:24:42;;;;;;;32.97;6.25;;;;;;;22.76;25.20;99485.47;5090239;28;20032;-78
2022/04/01 10:27:14;;;;;;;33.65;6.43;;;;;;;22.50;25.59;99459.88;5124648;27;20051;-81
2022/04/01 10:29:39;;;;;;;43.70;6.75;;;;;;;23.63;24.21;99466.34;5108705;28;20027;-82
2022/04/01 10:32:24;;;;;;;35.78;7.07;;;;;;;26.20;21.17;99471.13;5111478;28;20043;-83
2022/04/01 10:34:50;;;;;;;47.75;6.97;;;;;;;26.93;20.23;99456.97;5108658;28;20443;-83
2022/04/01 10:37:16;;;;;;;29.48;6.45;;;;;;;27.85;19.16;99432.56;5109330;28;20039;-81
2022/04/01 10:39:51;;;;;;;38.67;6.30;;;;;;;27.44;19.46;99430.53;5110278;28;20023;-83
2022/04/01 10:42:17;;;;;;;43.30;7.00;;;;;;;28.34;18.74;99422.72;5110762;28;20082;-80
2022/04/01 10:44:47;;;;;;;31.42;5.80;;;;;;;28.56;18.70;99423.94;5111213;28;20070;-81
2022/04/01 10:47:12;;;;;;;39.88;6.78;;;;;;;29.34;17.69;99426.56;5109294;28;20044;-82
2022/04/01 10:52:23;;;;;;;39.33;6.68;;;;;;;26.56;19.97;99416.44;5110190;28;20034;-82
2022/04/01 10:55:03;;;;;;;36.33;6.47;;;;;;;26.32;20.74;99413.72;5110131;28;20126;-82
2022/04/01 10:57:30;;;;;;;33.53;6.65;;;;;;;25.57;21.64;99419.78;5110638;28;20210;-82
2022/04/01 10:59:59;;;;;;;51.15;7.13;;;;;;;24.84;22.75;99414.03;5110056;28;20229;-81
2022/04/01 11:02:25;;;;;;;39.70;6.88;;;;;;;24.26;23.22;99418.47;5108350;28;20341;-82
2022/04/01 11:04:53;;;;;;;37.45;6.22;;;;;;;23.91;23.60;99412.00;5108467;28;20459;-81
2022/04/01 11:07:21;;;;;;;44.13;7.00;;;;;;;23.35;24.26;99410.16;5110015;28;20023;-82
2022/04/01 11:10:00;;;;;;;35.92;6.38;;;;;;;24.05;23.61;99407.56;5109534;28;20057;-81
2022/04/01 11:12:38;;;;;;;41.92;6.60;;;;;;;23.58;24.26;99403.28;5107749;28;20019;-82
2022/04/01 11:15:07;;;;;;;34.55;6.63;;;;;;;23.77;23.79;99390.63;5108239;28;20441;-80
2022/04/01 11:17:35;;;;;;;32.38;6.28;;;;;;;23.74;23.62;99374.72;5109859;28;20034;-81
2022/04/01 11:20:10;;;;;;;39.10;6.45;;;;;;;23.58;23.92;99360.19;5109097;28;20032;-82
2022/04/01 11:22:36;;;;;;;47.42;6.93;;;;;;;24.50;22.70;99374.69;5108797;28;20074;-82
2022/04/01 11:25:02;;;;;;;38.60;6.55;;;;;;;25.97;21.10;99360.72;5109025;28;20035;-82
2022/04/01 11:27:28;;;;;;;34.50;6.20;;;;;;;26.96;19.96;99345.25;5109890;28;20042;-82
2022/04/01 11:30:06;;;;;;;34.08;6.43;;;;;;;27.23;19.81;99338.19;5108827;28;20188;-82
2022/04/01 11:32:36;;;;;;;54.92;7.07;;;;;;;26.89;19.70;99333.78;5108810;28;20417;-82
2022/04/01 11:35:02;;;;;;;72.57;6.90;;;;;;;26.32;19.62;99320.84;5113093;28;20033;-81
2022/04/01 11:37:28;;;;;;;64.43;6.32;;;;;;;26.43;19.75;99342.75;5115143;28;20042;-81
2022/04/01 11:40:09;;;;;;;58.15;6.65;;;;;;;27.08;19.03;99350.28;5114977;28;20363;-80
2022/04/01 11:42:34;;;;;;;46.80;5.45;;;;;;;27.42;18.93;99308.59;5114714;28;20131;-81
2022/04/01 11:45:00;;;;;;;40.40;6.47;;;;;;;27.60;18.67;99306.03;5115204;28;20102;-81
2022/04/01 11:47:37;;;;;;;50.40;6.93;;;;;;;27.07;19.73;99329.34;5114982;28;20042;-82